• Join FlightAware (Why Join?)
  • Login
  • US Flag 
08:02AM EST


 

Airport Tracker/Info


-or-


 

Live Flight TrackerFlight Track Log ✈ G-CIVZ ✈ 29-Apr-2013 ✈ DNMM / LOS - EGLL / LHR

Flight Track Log - Related Links

Times and Time Zones

All times are in EDT time to prevent confusion due to time zone crossing. See the G-CIVZ flight status page for this flight to view local times or setup timezone preferences in your user account.

Time Position Orientation Groundspeed Altitude Reporting Facility
EDT Latitude Longitude Course Direction KTS MPH feet Rate Location/Type
06:21PM 6.7061 3.3136 357° North  Level Estimated
06:22PM 6.8348 3.3061 357° North  Level Estimated
06:23PM 6.9636 3.2985 357° North  Level Estimated
06:24PM 7.0923 3.2910 357° North  Level Estimated
06:25PM 7.2211 3.2834 357° North  Level Estimated
06:26PM 7.3498 3.2758 357° North  Level Estimated
06:27PM 7.4785 3.2683 357° North  Level Estimated
06:28PM 7.6073 3.2607 357° North  Level Estimated
06:29PM 7.7360 3.2531 357° North  Level Estimated
06:30PM 7.8648 3.2455 357° North  Level Estimated
06:31PM 7.9935 3.2379 357° North  Level Estimated
06:32PM 8.1222 3.2304 357° North  Level Estimated
06:33PM 8.2510 3.2227 357° North  Level Estimated
06:34PM 8.3797 3.2152 357° North  Level Estimated
06:35PM 8.5085 3.2075 357° North  Level Estimated
06:36PM 8.6372 3.1999 357° North  Level Estimated
06:37PM 8.7660 3.1923 357° North  Level Estimated
06:38PM 8.8947 3.1847 357° North  Level Estimated
06:39PM 9.0234 3.1771 357° North  Level Estimated
06:40PM 9.1522 3.1694 357° North  Level Estimated
06:41PM 9.2809 3.1618 357° North  Level Estimated
06:42PM 9.4096 3.1542 357° North  Level Estimated
06:43PM 9.5384 3.1465 357° North  Level Estimated
06:44PM 9.6671 3.1388 357° North  Level Estimated
06:45PM 9.7959 3.1312 357° North  Level Estimated
06:46PM 9.9246 3.1235 357° North  Level Estimated
06:47PM 10.0534 3.1158 357° North  Level Estimated
06:48PM 10.1821 3.1082 357° North  Level Estimated
06:49PM 10.3108 3.1005 357° North  Level Estimated
06:50PM 10.4396 3.0928 357° North  Level Estimated
06:51PM 10.5683 3.0851 357° North  Level Estimated
06:52PM 10.6971 3.0774 357° North  Level Estimated
06:53PM 10.8258 3.0697 357° North  Level Estimated
06:54PM 10.9545 3.0619 357° North  Level Estimated
06:55PM 11.0833 3.0542 357° North  Level Estimated
06:56PM 11.2120 3.0465 357° North  Level Estimated
06:57PM 11.3407 3.0387 357° North  Level Estimated
06:58PM 11.4695 3.0310 357° North  Level Estimated
06:59PM 11.5982 3.0232 357° North  Level Estimated
07:00PM 11.7270 3.0155 357° North  Level Estimated
07:01PM 11.8557 3.0077 357° North  Level Estimated
07:02PM 11.9844 2.9999 357° North  Level Estimated
07:03PM 12.1132 2.9922 357° North  Level Estimated
07:04PM 12.2419 2.9844 357° North  Level Estimated
07:05PM 12.3706 2.9766 357° North  Level Estimated
07:06PM 12.4993 2.9688 357° North  Level Estimated
07:07PM 12.6281 2.9610 357° North  Level Estimated
07:08PM 12.7568 2.9531 357° North  Level Estimated
07:09PM 12.8855 2.9453 357° North  Level Estimated
07:10PM 13.0083 2.9378 357° North  Level Estimated
07:11PM 13.1310 2.9304 357° North  Level Estimated
07:12PM 13.2538 2.9229 357° North  Level Estimated
07:13PM 13.3765 2.9154 357° North  Level Estimated
07:14PM 13.4993 2.9079 357° North  Level Estimated
07:15PM 13.6220 2.9004 357° North  Level Estimated
07:16PM 13.7448 2.8928 357° North  Level Estimated
07:17PM 13.8675 2.8853 357° North  Level Estimated
07:18PM 13.9903 2.8778 357° North  Level Estimated
07:19PM 14.1130 2.8702 357° North  Level Estimated
07:20PM 14.2358 2.8627 357° North  Level Estimated
07:21PM 14.3585 2.8551 357° North  Level Estimated
07:22PM 14.4813 2.8476 357° North  Level Estimated
07:23PM 14.6040 2.8400 357° North  Level Estimated
07:24PM 14.7268 2.8324 357° North  Level Estimated
07:25PM 14.8495 2.8248 357° North  Level Estimated
07:26PM 14.9723 2.8172 357° North  Level Estimated
07:27PM 15.0950 2.8096 357° North  Level Estimated
07:28PM 15.2178 2.8020 357° North  Level Estimated
07:29PM 15.3405 2.7944 357° North  Level Estimated
07:30PM 15.4633 2.7867 357° North  Level Estimated
07:31PM 15.5860 2.7791 357° North  Level Estimated
07:32PM 15.7088 2.7714 357° North  Level Estimated
07:33PM 15.8315 2.7638 357° North  Level Estimated
07:34PM 15.9543 2.7561 357° North  Level Estimated
07:35PM 16.0770 2.7484 357° North  Level Estimated
07:36PM 16.1998 2.7407 357° North  Level Estimated
07:37PM 16.3225 2.7330 357° North  Level Estimated
07:38PM 16.4453 2.7253 357° North  Level Estimated
07:39PM 16.5680 2.7176 357° North  Level Estimated
07:40PM 16.6908 2.7099 357° North  Level Estimated
07:41PM 16.8135 2.7021 357° North  Level Estimated
07:42PM 16.9363 2.6944 357° North  Level Estimated
07:43PM 17.0590 2.6866 357° North  Level Estimated
07:44PM 17.1818 2.6789 357° North  Level Estimated
07:45PM 17.3045 2.6711 357° North  Level Estimated
07:46PM 17.4273 2.6633 357° North  Level Estimated
07:47PM 17.5500 2.6555 357° North  Level Estimated
07:48PM 17.6727 2.6477 357° North  Level Estimated
07:49PM 17.7955 2.6399 357° North  Level Estimated
07:50PM 17.9182 2.6320 357° North  Level Estimated
07:51PM 18.0410 2.6242 357° North  Level Estimated
07:52PM 18.1637 2.6163 357° North  Level Estimated
07:53PM 18.2864 2.6085 357° North  Level Estimated
07:54PM 18.4092 2.6006 357° North  Level Estimated
07:55PM 18.5319 2.5927 357° North  Level Estimated
07:56PM 18.6547 2.5848 357° North  Level Estimated
07:57PM 18.7774 2.5769 357° North  Level Estimated
07:58PM 18.9001 2.5690 357° North  Level Estimated
07:59PM 19.0229 2.5610 357° North  Level Estimated
08:00PM 19.1456 2.5531 356° North  Level Estimated
08:01PM 19.2684 2.5451 356° North  Level Estimated
08:02PM 19.3911 2.5371 356° North  Level Estimated
08:03PM 19.5138 2.5292 356° North  Level Estimated
08:04PM 19.6366 2.5212 356° North  Level Estimated
08:05PM 19.7593 2.5132 356° North  Level Estimated
08:06PM 19.8821 2.5052 356° North  Level Estimated
08:07PM 20.0048 2.4971 356° North  Level Estimated
08:08PM 20.1275 2.4891 356° North  Level Estimated
08:09PM 20.2503 2.4810 356° North  Level Estimated
08:10PM 20.3730 2.4729 356° North  Level Estimated
08:11PM 20.4958 2.4649 356° North  Level Estimated
08:12PM 20.6185 2.4568 356° North  Level Estimated
08:13PM 20.7412 2.4487 356° North  Level Estimated
08:14PM 20.8640 2.4405 356° North  Level Estimated
08:15PM 20.9867 2.4324 356° North  Level Estimated
08:16PM 21.1094 2.4243 356° North  Level Estimated
08:17PM 21.2322 2.4161 356° North  Level Estimated
08:18PM 21.3549 2.4079 356° North  Level Estimated
08:19PM 21.4776 2.3997 356° North  Level Estimated
08:20PM 21.6003 2.3915 356° North  Level Estimated
08:21PM 21.7231 2.3833 356° North  Level Estimated
08:22PM 21.8458 2.3751 356° North  Level Estimated
08:23PM 21.9685 2.3668 356° North  Level Estimated
08:24PM 22.0913 2.3586 356° North  Level Estimated
08:25PM 22.2140 2.3503 356° North  Level Estimated
08:26PM 22.3367 2.3420 356° North  Level Estimated
08:27PM 22.4595 2.3337 356° North  Level Estimated
08:28PM 22.5822 2.3254 356° North  Level Estimated
08:29PM 22.7049 2.3171 356° North  Level Estimated
08:30PM 22.8277 2.3087 356° North  Level Estimated
08:31PM 22.9504 2.3004 356° North  Level Estimated
08:32PM 23.0731 2.2920 356° North  Level Estimated
08:33PM 23.1958 2.2836 356° North  Level Estimated
08:34PM 23.3186 2.2752 356° North  Level Estimated
08:35PM 23.4413 2.2668 356° North  Level Estimated
08:36PM 23.5640 2.2583 356° North  Level Estimated
08:37PM 23.6868 2.2499 356° North  Level Estimated
08:38PM 23.8095 2.2414 356° North  Level Estimated
08:39PM 23.9322 2.2329 356° North  Level Estimated
08:40PM 24.0549 2.2244 356° North  Level Estimated
08:41PM 24.1776 2.2159 356° North  Level Estimated
08:42PM 24.3004 2.2073 356° North  Level Estimated
08:43PM 24.4231 2.1988 356° North  Level Estimated
08:44PM 24.5458 2.1902 356° North  Level Estimated
08:45PM 24.6685 2.1816 356° North  Level Estimated
08:46PM 24.7912 2.1730 356° North  Level Estimated
08:47PM 24.9140 2.1644 356° North  Level Estimated
08:48PM 25.0367 2.1558 356° North  Level Estimated
08:49PM 25.1594 2.1471 356° North  Level Estimated
08:50PM 25.2821 2.1384 356° North  Level Estimated
08:51PM 25.4048 2.1298 356° North  Level Estimated
08:52PM 25.5276 2.1210 356° North  Level Estimated
08:53PM 25.6503 2.1123 356° North  Level Estimated
08:54PM 25.7730 2.1036 356° North  Level Estimated
08:55PM 25.8957 2.0948 356° North  Level Estimated
08:56PM 26.0184 2.0861 356° North  Level Estimated
08:57PM 26.1412 2.0773 356° North  Level Estimated
08:58PM 26.2639 2.0684 356° North  Level Estimated
08:59PM 26.3866 2.0596 356° North  Level Estimated
09:00PM 26.5093 2.0508 356° North  Level Estimated
09:01PM 26.6320 2.0419 356° North  Level Estimated
09:02PM 26.7547 2.0330 356° North  Level Estimated
09:03PM 26.8774 2.0241 356° North  Level Estimated
09:04PM 27.0001 2.0152 356° North  Level Estimated
09:05PM 27.1228 2.0062 356° North  Level Estimated
09:06PM 27.2456 1.9972 356° North  Level Estimated
09:07PM 27.3683 1.9882 356° North  Level Estimated
09:08PM 27.4910 1.9792 356° North  Level Estimated
09:09PM 27.6154 1.9701 356° North  Level Estimated
09:10PM 27.7398 1.9609 356° North  Level Estimated
09:11PM 27.8642 1.9517 356° North  Level Estimated
09:12PM 27.9886 1.9425 356° North  Level Estimated
09:13PM 28.1130 1.9332 356° North  Level Estimated
09:14PM 28.2374 1.9240 356° North  Level Estimated
09:15PM 28.3618 1.9147 356° North  Level Estimated
09:16PM 28.4862 1.9054 356° North  Level Estimated
09:17PM 28.6106 1.8961 356° North  Level Estimated
09:18PM 28.7350 1.8867 356° North  Level Estimated
09:19PM 28.8594 1.8773 356° North  Level Estimated
09:20PM 28.9838 1.8680 356° North  Level Estimated
09:21PM 29.1082 1.8585 356° North  Level Estimated
09:22PM 29.2326 1.8491 356° North  Level Estimated
09:23PM 29.3570 1.8397 356° North  Level Estimated
09:24PM 29.4814 1.8302 356° North  Level Estimated
09:25PM 29.6058 1.8207 356° North  Level Estimated
09:26PM 29.7302 1.8111 356° North  Level Estimated
09:27PM 29.8546 1.8016 356° North  Level Estimated
09:28PM 29.9790 1.7920 356° North  Level Estimated
09:29PM 30.1034 1.7824 356° North  Level Estimated
09:30PM 30.2278 1.7728 356° North  Level Estimated
09:31PM 30.3522 1.7631 356° North  Level Estimated
09:32PM 30.4766 1.7534 356° North  Level Estimated
09:33PM 30.6010 1.7437 356° North  Level Estimated
09:34PM 30.7254 1.7340 356° North  Level Estimated
09:35PM 30.8498 1.7243 356° North  Level Estimated
09:36PM 30.9741 1.7145 356° North  Level Estimated
09:37PM 31.0985 1.7047 356° North  Level Estimated
09:38PM 31.2229 1.6949 356° North  Level Estimated
09:39PM 31.3473 1.6850 356° North  Level Estimated
09:40PM 31.4717 1.6751 356° North  Level Estimated
09:41PM 31.5961 1.6652 356° North  Level Estimated
09:42PM 31.7205 1.6553 356° North  Level Estimated
09:43PM 31.8449 1.6453 356° North  Level Estimated
09:44PM 31.9692 1.6354 356° North  Level Estimated
09:45PM 32.0936 1.6253 356° North  Level Estimated
09:46PM 32.2180 1.6153 356° North  Level Estimated
09:47PM 32.3424 1.6052 356° North  Level Estimated
09:48PM 32.4668 1.5951 356° North  Level Estimated
09:49PM 32.5911 1.5850 356° North  Level Estimated
09:50PM 32.7155 1.5749 356° North  Level Estimated
09:51PM 32.8399 1.5647 356° North  Level Estimated
09:52PM 32.9643 1.5545 356° North  Level Estimated
09:53PM 33.0887 1.5443 356° North  Level Estimated
09:54PM 33.2131 1.5340 356° North  Level Estimated
09:55PM 33.3374 1.5237 356° North  Level Estimated
09:56PM 33.4618 1.5134 356° North  Level Estimated
09:57PM 33.5862 1.5030 356° North  Level Estimated
09:58PM 33.7105 1.4926 356° North  Level Estimated
09:59PM 33.8349 1.4822 356° North  Level Estimated
10:00PM 33.9593 1.4718 356° North  Level Estimated
10:01PM 34.0836 1.4613 356° North  Level Estimated
10:02PM 34.2080 1.4508 356° North  Level Estimated
10:03PM 34.3324 1.4403 356° North  Level Estimated
10:04PM 34.4568 1.4297 356° North  Level Estimated
10:05PM 34.5811 1.4191 356° North  Level Estimated
10:06PM 34.7055 1.4085 356° North  Level Estimated
10:07PM 34.8299 1.3978 356° North  Level Estimated
10:08PM 34.9542 1.3871 356° North  Level Estimated
10:09PM 35.0786 1.3764 356° North  Level Estimated
10:10PM 35.2029 1.3656 356° North  Level Estimated
10:11PM 35.3273 1.3548 356° North  Level Estimated
10:12PM 35.4517 1.3440 356° North  Level Estimated
10:13PM 35.5760 1.3331 356° North  Level Estimated
10:14PM 35.7004 1.3223 356° North  Level Estimated
10:15PM 35.8247 1.3113 356° North  Level Estimated
10:16PM 35.9491 1.3004 356° North  Level Estimated
10:17PM 36.0734 1.2894 356° North  Level Estimated
10:17PM 38.2780 6.1820 356° North 519 597 36,000  Level FlightAware
10:18PM 36.1978 1.2783 356° North  Level Estimated
10:18PM 38.3590 6.1720 354° North 519 597 36,000  Level FlightAware
10:20PM 38.5830 6.0822 343° North  Level Estimated
10:20PM 38.7630 6.1080 343° North 519 597 36,000  Level FlightAware
10:22PM 38.9560 6.0700 351° North 520 598 36,000 480 Level FlightAware
10:23PM 39.1250 6.0370 351° North 522 601 37,200 300 Climbing FlightAware
10:25PM 39.3383 5.9472 342° North  Level Estimated
10:26PM 39.4568 5.8970 342° North  Level Estimated
10:27PM 39.5753 5.8467 342° North  Level Estimated
10:28PM 39.6938 5.7962 342° North  Level Estimated
10:28PM 39.8410 5.8880 342° North 540 621 38,000  Level FlightAware
10:30PM 40.0733 5.7856 341° North  Level Estimated
10:30PM 40.2020 5.8120 341° North 539 620 38,000  Level FlightAware
10:31PM 40.3200 5.7860 350° North 541 623 38,000  Level FlightAware
10:31PM 40.4210 5.7650 351° North 542 624 38,000  Level FlightAware
10:32PM 40.5150 5.7450 351° North 543 625 38,000  Level FlightAware
10:33PM 40.6110 5.7230 350° North 543 625 38,000  Level FlightAware
10:33PM 40.7270 5.6990 351° North 542 624 38,000  Level FlightAware
10:34PM 40.8420 5.6750 351° North 541 623 38,000  Level FlightAware
10:35PM 40.9180 5.6570 350° North 540 621 38,000  Level FlightAware
10:36PM 41.0490 5.6300 351° North 539 620 38,000  Level FlightAware
10:36PM 41.1480 5.6080 351° North 539 620 38,000  Level FlightAware
10:37PM 41.2460 5.5870 351° North 538 619 38,000  Level FlightAware
10:38PM 41.3570 5.5620 350° North 539 620 38,000  Level FlightAware
10:38PM 41.4560 5.5400 351° North 540 621 38,000  Level FlightAware
10:39PM 41.5660 5.5160 351° North 541 623 38,000  Level FlightAware
10:40PM 41.6660 5.4940 351° North 542 624 38,000  Level FlightAware
10:40PM 41.7640 5.4720 350° North 543 625 38,000  Level FlightAware
10:41PM 41.8790 5.4460 350° North 542 624 38,000  Level FlightAware
10:42PM 41.9720 5.4260 351° North 541 623 38,000  Level FlightAware
10:43PM 42.0670 5.4040 350° North 539 620 38,000  Level FlightAware
10:43PM 42.1580 5.3840 351° North 538 619 38,000  Level FlightAware
10:44PM 42.2760 5.3570 350° North 537 618 38,000  Level FlightAware
10:45PM 42.3920 5.3310 351° North 537 618 38,000  Level FlightAware
10:45PM 42.4900 5.3080 350° North 537 618 38,000  Level FlightAware
10:46PM 42.5880 5.2860 351° North 537 618 38,000  Level FlightAware
10:47PM 42.7020 5.2600 350° North 535 616 38,000  Level FlightAware
10:47PM 42.7990 5.2370 350° North 534 615 38,000  Level FlightAware
10:48PM 42.9050 5.2130 351° North 533 613 38,000  Level FlightAware
10:49PM 43.0030 5.1900 350° North 531 611 38,000  Level FlightAware
10:50PM 43.0990 5.1680 351° North 530 610 38,000  Level FlightAware
10:50PM 43.2110 5.1420 350° North 530 610 38,000  Level FlightAware
10:51PM 43.3080 5.1190 350° North 530 610 38,000  Level FlightAware
10:52PM 43.4140 5.0940 350° North 531 611 38,000  Level FlightAware
10:52PM 43.5110 5.0710 350° North 531 611 38,000  Level FlightAware
10:53PM 43.6080 5.0480 350° North 531 611 38,000  Level FlightAware
10:54PM 43.7200 5.0220 350° North 533 613 38,000  Level FlightAware
10:54PM 43.8180 4.9980 350° North 532 612 38,000  Level FlightAware
10:55PM 43.9250 4.9730 350° North 531 611 38,000  Level FlightAware
10:56PM 44.0200 4.9500 350° North 530 610 38,000  Level FlightAware
10:57PM 44.1180 4.9270 350° North 529 609 38,000  Level FlightAware
10:57PM 44.2290 4.9000 350° North 526 605 38,000  Level FlightAware
10:58PM 44.3340 4.8740 350° North 523 602 38,000  Level FlightAware
10:59PM 44.4300 4.8510 350° North 520 598 38,000  Level FlightAware
10:59PM 44.5220 4.8290 350° North 517 595 38,000  Level FlightAware
11:00PM 44.6310 4.8020 350° North 514 592 38,000  Level FlightAware
11:01PM 44.7260 4.7780 350° North 513 590 38,000  Level FlightAware
11:02PM 44.8280 4.7530 350° North 511 588 38,000  Level FlightAware
11:02PM 44.9200 4.7280 349° North 509 586 38,000  Level FlightAware
11:03PM 45.0110 4.6920 344° North 510 587 38,000  Level FlightAware
11:04PM 45.1150 4.6460 343° North 510 587 38,000  Level FlightAware
11:04PM 45.2050 4.6030 341° North 512 589 38,000  Level FlightAware
11:05PM 45.3040 4.5580 342° North 515 593 38,000  Level FlightAware
11:06PM 45.3950 4.5150 342° North 517 595 38,000  Level FlightAware
11:06PM 45.5000 4.4650 342° North 518 596 38,000  Level FlightAware
11:07PM 45.5920 4.4210 341° North 519 597 38,000  Level FlightAware
11:08PM 45.6790 4.3800 342° North 518 596 38,000  Level FlightAware
11:09PM 45.7830 4.3300 341° North 519 597 38,000  Level FlightAware
11:09PM 45.8750 4.2870 342° North 518 596 38,000  Level FlightAware
11:10PM 45.9740 4.2390 341° North 518 596 38,000  Level FlightAware
11:11PM 46.0650 4.1950 341° North 517 595 38,000  Level FlightAware
11:11PM 46.1570 4.1510 342° North 515 593 38,000  Level FlightAware
11:12PM 46.2610 4.1010 342° North 512 589 38,000  Level FlightAware
11:13PM 46.3500 4.0570 341° North 510 587 38,000  Level FlightAware
11:13PM 46.4390 4.0140 342° North 508 585 38,000  Level FlightAware
11:14PM 46.5360 3.9660 341° North 506 582 38,000  Level FlightAware
11:15PM 46.6260 3.9230 342° North 505 581 38,000  Level FlightAware
11:16PM 46.7290 3.8720 341° North 506 582 38,000  Level FlightAware
11:16PM 46.8160 3.8290 341° North 506 582 38,000  Level FlightAware
11:17PM 46.9060 3.7850 342° North 506 582 38,000  Level FlightAware
11:18PM 47.0030 3.7370 341° North 506 582 38,000  Level FlightAware
11:18PM 47.0910 3.6930 341° North 506 582 38,000  Level FlightAware
11:19PM 47.1670 3.6550 341° North 508 585 38,000  Level FlightAware
11:20PM 47.2770 3.5990 341° North 508 585 38,000  Level FlightAware
11:20PM 47.3710 3.5520 341° North 507 583 38,000  Level FlightAware
11:21PM 47.4680 3.5030 341° North 505 581 38,000  Level FlightAware
11:22PM 47.5570 3.4580 341° North 503 579 38,000  Level FlightAware
11:23PM 47.6530 3.4090 341° North 501 577 38,000  Level FlightAware
11:23PM 47.7380 3.3630 340° North 497 572 38,000  Level FlightAware
11:24PM 47.8330 3.3050 338° Northwest 495 570 38,000  Level FlightAware
11:25PM 47.9230 3.2520 338° Northwest 492 566 38,000  Level FlightAware
11:25PM 48.0070 3.2020 338° Northwest 491 565 38,000  Level FlightAware
11:25PM 48.0355 3.1847 338° Northwest 491 565 38,000  Level FlightAware ADS-B
11:26PM 48.0998 3.1472 339° North 490 564 38,000  Level FlightAware ADS-B
11:26PM 48.1630 3.1097 338° Northwest 490 564 38,000  Level FlightAware ADS-B
11:27PM 48.2322 3.0685 338° Northwest 490 564 38,000  Level FlightAware ADS-B
11:28PM 48.3650 2.9890 338° Northwest 490 564 38,000  Level FlightAware
11:28PM 48.4020 2.9664 338° Northwest 490 564 38,000  Level FlightAware ADS-B
11:29PM 48.4665 2.9284 339° North 489 563 38,000  Level FlightAware ADS-B
11:29PM 48.5297 2.8904 338° Northwest 488 562 38,000  Level FlightAware ADS-B
11:30PM 48.5959 2.8497 338° Northwest 488 562 38,000  Level FlightAware ADS-B
11:30PM 48.6608 2.8104 338° Northwest 487 560 38,000  Level FlightAware ADS-B
11:31PM 48.7249 2.7709 338° Northwest 486 559 38,000  Level FlightAware ADS-B
11:31PM 48.7910 2.7302 338° Northwest 485 558 38,000  Level FlightAware ADS-B
11:32PM 48.8635 2.6869 339° North 485 558 38,000  Level FlightAware ADS-B
11:33PM 48.9277 2.6473 338° Northwest 483 556 38,000 -1,860 Level FlightAware ADS-B
11:33PM 48.9637 2.6123 338° Northwest 1 1 36,500  Descending FlightAware UK
11:33PM 48.9911 2.6079 338° Northwest 481 554 38,000  Climbing FlightAware ADS-B
11:33PM 49.0274 2.5773 338° Northwest 1 1 36,500  Descending FlightAware UK
11:34PM 49.0546 2.5684 338° Northwest 479 551 38,000  Climbing FlightAware ADS-B
11:34PM 49.0894 2.5463 338° Northwest 1 1 36,500  Descending FlightAware UK
11:34PM 49.1226 2.5233 338° Northwest 479 551 38,000  Climbing FlightAware ADS-B
11:34PM 49.1613 2.4956 338° Northwest 1 1 36,500  Descending FlightAware UK
11:35PM 49.1915 2.4697 338° Northwest 474 545 38,000  Climbing FlightAware ADS-B
11:35PM 49.2191 2.4464 338° Northwest 1 1 36,500 -2,760 Descending FlightAware UK
11:35PM 49.2536 2.4176 331° Northwest 1 1 36,500 3,720 Level FlightAware UK
11:35PM 49.2649 2.4081 331° Northwest 472 543 38,000  Climbing FlightAware ADS-B
11:36PM 49.2988 2.3775 331° Northwest 480 552 36,500  Descending FlightAware UK
11:36PM 49.3226 2.3571 331° Northwest 473 544 38,000  Climbing FlightAware ADS-B
11:36PM 49.3554 2.3280 331° Northwest 476 548 36,500  Descending FlightAware UK
11:36PM 49.3802 2.3071 331° Northwest 473 544 38,000  Climbing FlightAware ADS-B
11:37PM 49.4119 2.2783 331° Northwest 476 548 36,500  Descending FlightAware UK
11:37PM 49.4431 2.2518 331° Northwest 474 545 38,000  Climbing FlightAware ADS-B
11:37PM 49.4809 2.2171 331° Northwest 476 548 36,500  Descending FlightAware UK
11:37PM 49.5011 2.1999 331° Northwest 475 547 38,000  Climbing FlightAware ADS-B
11:38PM 49.5381 2.1668 331° Northwest 474 545 36,500 -2,400 Descending FlightAware UK
11:38PM 49.5724 2.1364 330° Northwest 474 545 36,500  Level FlightAware UK
11:38PM 49.6059 2.1064 330° Northwest 474 545 36,500 2,760 Level FlightAware UK
11:39PM 49.6300 2.0860 330° Northwest 478 550 38,000  Climbing FlightAware
11:39PM 49.6635 2.0555 330° Northwest 474 545 36,500 -2,760 Descending FlightAware UK
11:39PM 49.6981 2.0246 330° Northwest 476 548 36,500 4,080 Level FlightAware UK
11:39PM 49.7048 2.0162 330° Northwest 477 549 38,000  Climbing FlightAware ADS-B
11:40PM 49.7393 1.9732 330° Northwest 478 550 36,500  Descending FlightAware UK
11:40PM 49.7577 1.9527 330° Northwest 477 549 38,000  Climbing FlightAware ADS-B
11:40PM 49.7909 1.9096 330° Northwest 480 552 36,500 -2,460 Descending FlightAware UK
11:40PM 49.8222 1.8708 321° Northwest 482 555 36,500  Level FlightAware UK
11:41PM 49.8534 1.8326 322° Northwest 480 552 36,500 4,500 Level FlightAware UK
11:41PM 49.8550 1.8340 322° Northwest 477 549 38,000  Climbing FlightAware
11:41PM 49.8851 1.7940 322° Northwest 482 555 36,500 -2,700 Descending FlightAware UK
11:41PM 49.9165 1.7571 323° Northwest 484 557 36,500 3,720 Level FlightAware UK
11:41PM 49.9240 1.7510 323° Northwest 477 549 38,000 -540 Climbing FlightAware
11:42PM 49.9590 1.7082 323° Northwest 484 557 36,300 -3,000 Descending FlightAware UK
11:42PM 49.9912 1.6710 323° Northwest 480 552 36,200 2,880 Descending FlightAware UK
11:42PM 50.0030 1.6590 323° Northwest 471 542 37,600 2,460 Climbing FlightAware
11:42PM 50.0311 1.6263 323° Northwest 469 540 37,200 -4,920 Descending FlightAware ADS-B
11:43PM 50.0638 1.5868 323° Northwest 480 552 34,900 -5,040 Descending FlightAware UK
11:43PM 50.0958 1.5495 323° Northwest 470 541 34,200 -2,220 Descending FlightAware UK
11:43PM 50.1259 1.5139 323° Northwest 464 534 33,600 2,820 Descending FlightAware UK
11:43PM 50.1259 1.5157 323° Northwest 462 532 35,100 -2,340 Climbing FlightAware ADS-B
11:44PM 50.1555 1.4790 323° Northwest 458 527 32,900 -2,220 Descending FlightAware UK
11:44PM 50.1777 1.4533 323° Northwest 458 527 34,000 -2,220 Climbing FlightAware ADS-B
11:44PM 50.2055 1.4192 323° Northwest 448 516 31,800 -2,280 Descending FlightAware UK
11:44PM 50.2311 1.3891 323° Northwest 454 522 32,800 -2,040 Climbing FlightAware ADS-B
11:45PM 50.2553 1.3591 323° Northwest 440 506 30,800 -4,920 Descending FlightAware UK
11:45PM 50.2850 1.3236 323° Northwest 444 511 30,100 2,520 Descending FlightAware UK
11:45PM 50.2869 1.3218 323° Northwest 449 517 31,600 -2,040 Climbing FlightAware ADS-B
11:45PM 50.3146 1.2880 323° Northwest 440 506 29,500 -1,980 Descending FlightAware UK
11:45PM 50.3369 1.2629 323° Northwest 444 511 30,600 -2,040 Climbing FlightAware ADS-B
11:46PM 50.3635 1.2296 323° Northwest 440 506 28,500 -1,980 Descending FlightAware UK
11:46PM 50.3871 1.2028 323° Northwest 436 502 29,600 -1,800 Climbing FlightAware ADS-B
11:46PM 50.4108 1.1724 323° Northwest 434 499 27,600 -1,800 Descending FlightAware UK
11:46PM 50.4358 1.1435 323° Northwest 427 491 28,700 -1,860 Climbing FlightAware ADS-B
11:47PM 50.4677 1.1035 323° Northwest 428 493 26,500 -1,800 Descending FlightAware UK
11:47PM 50.4823 1.0871 323° Northwest 419 482 27,800 -1,800 Climbing FlightAware ADS-B
11:47PM 50.5135 1.0480 323° Northwest 424 488 25,600 -1,800 Descending FlightAware UK
11:47PM 50.5281 1.0321 323° Northwest 411 473 26,900 -1,800 Climbing FlightAware ADS-B
11:48PM 50.5584 0.9937 323° Northwest 420 483 24,700 -2,220 Descending FlightAware UK
11:48PM 50.5729 0.9779 323° Northwest 406 467 25,800 -3,420 Climbing FlightAware ADS-B
11:48PM 50.6030 0.9397 323° Northwest 426 490 23,000 -4,080 Descending FlightAware UK
11:48PM 50.6192 0.9206 323° Northwest 424 488 23,700 -3,420 Climbing FlightAware ADS-B
11:49PM 50.6490 0.8832 323° Northwest 440 506 21,300 -2,400 Descending FlightAware UK
11:49PM 50.6663 0.8642 323° Northwest 419 482 22,500 -2,040 Climbing FlightAware ADS-B
11:49PM 50.6953 0.8275 323° Northwest 428 493 20,300 -2,160 Descending FlightAware UK
11:49PM 50.7126 0.8073 323° Northwest 408 470 21,400 -2,040 Climbing FlightAware ADS-B
11:50PM 50.7399 0.7727 323° Northwest 420 483 19,300 -2,220 Descending FlightAware UK
11:50PM 50.7574 0.7532 323° Northwest 399 459 20,300 -2,220 Climbing FlightAware ADS-B
11:50PM 50.7836 0.7194 323° Northwest 416 479 18,200 -2,040 Descending FlightAware UK
11:50PM 50.8006 0.6984 323° Northwest 388 447 19,300 -2,040 Climbing FlightAware ADS-B
11:51PM 50.8257 0.6676 323° Northwest 404 465 17,200 -2,220 Descending FlightAware UK
11:51PM 50.8428 0.6466 323° Northwest 382 440 18,200 -2,640 Climbing FlightAware ADS-B
11:51PM 50.8678 0.6155 323° Northwest 402 463 15,900 -2,340 Descending FlightAware UK
11:51PM 50.8857 0.5936 323° Northwest 376 433 17,000 -2,100 Climbing FlightAware ADS-B
11:52PM 50.9084 0.5654 323° Northwest 394 453 14,900 -2,160 Descending FlightAware UK
11:52PM 50.9271 0.5433 323° Northwest 369 425 15,900 -2,340 Climbing FlightAware ADS-B
11:52PM 50.9491 0.5150 323° Northwest 384 442 13,700 -2,400 Descending FlightAware UK
11:53PM 50.9676 0.4935 323° Northwest 367 422 14,700 -2,220 Climbing FlightAware ADS-B
11:53PM 50.9892 0.4653 323° Northwest 382 440 12,600 -2,040 Descending FlightAware UK
11:53PM 51.0076 0.4427 323° Northwest 359 413 13,700 -2,220 Climbing FlightAware ADS-B
11:53PM 51.0286 0.4166 323° Northwest 374 430 11,500 -2,220 Descending FlightAware UK
11:54PM 51.0470 0.3943 323° Northwest 354 407 12,600 -2,040 Climbing FlightAware ADS-B
11:54PM 51.0669 0.3690 323° Northwest 372 428 10,500 -1,560 Descending FlightAware UK
11:54PM 51.0853 0.3465 323° Northwest 340 391 11,800 -840 Climbing FlightAware ADS-B
11:54PM 51.1035 0.3222 323° Northwest 346 398 10,100 -840 Descending FlightAware UK
11:55PM 51.1216 0.3004 323° Northwest 317 365 11,400 -1,080 Climbing FlightAware ADS-B
11:55PM 51.1446 0.2708 323° Northwest 322 371 9,500 -1,020 Descending FlightAware UK
11:55PM 51.1563 0.2567 323° Northwest 301 346 10,900 4,080 Climbing FlightAware ADS-B
11:55PM 51.1648 0.2460 322° Northwest 297 342 10,800 -960 Descending FlightAware ADS-B
11:55PM 51.1703 0.2412 331° Northwest 295 339 10,700 -600 Descending FlightAware ADS-B
11:55PM 51.1766 0.2364 334° Northwest 294 338 10,700 -600 Level FlightAware ADS-B
11:55PM 51.1833 0.2323 339° North 293 337 10,600 -780 Descending FlightAware ADS-B
11:55PM 51.1876 0.2311 350° North 292 336 10,600 -720 Level FlightAware ADS-B
11:56PM 51.1956 0.2299 355° North 290 334 10,500 -1,140 Descending FlightAware ADS-B
11:56PM 51.2023 0.2298 359° North 289 333 10,400 -4,800 Descending FlightAware ADS-B
11:56PM 51.2269 0.2302 359° North 290 334 8,600 -1,020 Descending FlightAware UK
11:56PM 51.2335 0.2306 359° North 283 326 10,000 4,200 Climbing FlightAware ADS-B
11:56PM 51.2497 0.2309 North 280 322 9,800 -720 Descending FlightAware ADS-B
11:57PM 51.2689 0.2311 360° North 268 308 9,700 -420 Descending FlightAware ADS-B
11:57PM 51.2871 0.2312 360° North 256 295 9,600 -420 Descending FlightAware ADS-B
11:57PM 51.3047 0.2316 North 247 284 9,500 -600 Descending FlightAware ADS-B
11:57PM 51.3219 0.2319 North 242 278 9,300 -1,200 Descending FlightAware ADS-B
11:57PM 51.3348 0.2321 North 242 278 9,000 -1,380 Descending FlightAware ADS-B
11:58PM 51.3520 0.2322 360° North 243 280 8,700 -1,200 Descending FlightAware ADS-B
11:58PM 51.3576 0.2322 360° North 243 280 8,600 -1,440 Descending FlightAware ADS-B
11:58PM 51.3716 0.2320 360° North 243 280 8,300 -1,320 Descending FlightAware ADS-B
11:58PM 51.3841 0.2318 359° North 242 278 8,100 -1,260 Descending FlightAware ADS-B
11:58PM 51.3980 0.2316 359° North 242 278 7,800 -1,500 Descending FlightAware ADS-B
11:59PM 51.4152 0.2312 359° North 246 283 7,400 -1,200 Descending FlightAware ADS-B
11:59PM 51.4322 0.2307 359° North 243 280 7,200 -660 Descending FlightAware ADS-B
11:59PM 51.4372 0.2304 358° North 241 277 7,200 -900 Level FlightAware ADS-B
11:59PM 51.4406 0.2300 355° North 240 276 7,100 -1,740 Descending FlightAware ADS-B
11:59PM 51.4445 0.2293 354° North 239 275 7,000 -900 Descending FlightAware ADS-B
11:59PM 51.4481 0.2275 343° North 237 273 7,000 -780 Level FlightAware ADS-B
11:59PM 51.4525 0.2248 339° North 234 269 6,900 -1,500 Descending FlightAware ADS-B
11:59PM 51.4557 0.2213 326° Northwest 233 268 6,800 -900 Descending FlightAware ADS-B
11:59PM 51.4584 0.2181 323° Northwest 232 267 6,800 -780 Level FlightAware ADS-B
11:59PM 51.4614 0.2131 314° West 231 266 6,700 -780 Descending FlightAware ADS-B
11:59PM 51.4639 0.2076 306° West 229 264 6,700  Level FlightAware ADS-B
12:00AM 51.4656 0.2018 295° West 228 262 6,700 -780 Level FlightAware ADS-B
12:00AM 51.4681 0.1944 299° West 225 259 6,600 -1,140 Descending FlightAware ADS-B
12:00AM 51.4704 0.1868 296° West 221 254 6,500 -600 Descending FlightAware ADS-B
12:00AM 51.4718 0.1807 290° West 220 253 6,500 -720 Level FlightAware ADS-B
12:00AM 51.4727 0.1727 280° West 217 250 6,400 -720 Descending FlightAware ADS-B
12:00AM 51.4746 0.1524 279° West 209 241 6,300 -480 Descending FlightAware ADS-B
12:00AM 51.4761 0.1329 277° West 198 228 6,200 -540 Descending FlightAware ADS-B
12:00AM 51.4775 0.1188 279° West 190 219 6,100 -480 Descending FlightAware ADS-B
12:01AM 51.4780 0.1131 278° West 189 217 6,100  Level FlightAware ADS-B
12:01AM 51.4787 0.1022 276° West 185 213 6,100 -360 Level FlightAware ADS-B
12:01AM 51.4790 0.0912 273° West 185 213 6,000 -360 Descending FlightAware ADS-B
12:01AM 51.4790 0.0761 270° West 184 212 6,000 -480 Level FlightAware ADS-B
12:01AM 51.4787 0.0551 269° West 171 197 5,800 -3,540 Descending FlightAware ADS-B
12:01AM 51.4784 0.0365 269° West 178 205 4,200 -420 Descending FlightAware UK
12:01AM 51.4784 0.0365 269° West 164 189 5,700 5,220 Climbing FlightAware ADS-B
12:02AM 51.4783 0.0169 270° West 163 188 5,600 -600 Descending FlightAware ADS-B
12:02AM 51.4782 -0.0012 269° West 163 188 5,400 -1,020 Descending FlightAware ADS-B
12:02AM 51.4783 -0.0194 271° West 164 189 5,100 -1,020 Descending FlightAware ADS-B
12:03AM 51.4783 -0.0379 270° West 166 191 4,900 -900 Descending FlightAware ADS-B
12:03AM 51.4783 -0.0538 270° West 166 191 4,700 -4,320 Descending FlightAware ADS-B
12:03AM 51.4783 -0.0731 270° West 172 198 2,900 -780 Descending FlightAware UK
12:03AM 51.4782 -0.0735 270° West 167 192 4,500 6,420 Climbing FlightAware ADS-B
12:03AM 51.4779 -0.0883 268° West 168 193 4,300 -1,140 Descending FlightAware ADS-B
12:03AM 51.4777 -0.1009 269° West 169 194 4,100 -1,200 Descending FlightAware ADS-B
12:03AM 51.4778 -0.1083 271° West 169 194 4,000 -840 Descending FlightAware ADS-B
12:04AM 51.4780 -0.1273 271° West 171 197 3,800 -1,020 Descending FlightAware ADS-B
12:04AM 51.4781 -0.1477 270° West 171 197 3,500 -1,260 Descending FlightAware ADS-B
12:04AM 51.4781 -0.1653 270° West 169 194 3,200 -1,080 Descending FlightAware ADS-B
12:04AM 51.4780 -0.1814 269° West 166 191 3,000 -780 Descending FlightAware ADS-B
12:05AM 51.4780 -0.2035 270° West 163 188 2,800 -3,660 Descending FlightAware ADS-B
12:05AM 51.4780 -0.2231 270° West 166 191 1,000 -1,080 Descending FlightAware UK
12:05AM 51.4780 -0.2240 270° West 163 188 2,500 -1,020 Climbing FlightAware ADS-B
12:05AM 51.4781 -0.2445 270° West 166 191 700 -1,080 Descending FlightAware UK
12:05AM 51.4780 -0.2457 270° West 162 186 2,200 -1,020 Climbing FlightAware ADS-B
12:06AM 51.4781 -0.2658 270° West 166 191 400 -720 Descending FlightAware UK
12:06AM 51.4781 -0.2660 270° West 161 185 2,000 5,160 Climbing FlightAware ADS-B
12:06AM 51.4781 -0.2839 270° West 161 185 1,700 -1,020 Descending FlightAware ADS-B
12:06AM 51.4778 -0.3144 269° West 161 185 1,300 -840 Descending FlightAware ADS-B
12:07AM 51.4779 -0.3351 270° West 161 185 1,100 -720 Descending FlightAware ADS-B
12:07AM 51.4780 -0.3533 271° West 153 176 900 -660 Descending FlightAware ADS-B
12:08AM 51.4780 -0.4380 270° West 151 174 100 -600 Descending FlightAware
12:11AM 51.4775 -0.4614 268° West  Level Estimated
12:12AM 51.4775 -0.4614 90° East  Level Estimated
12:13AM 51.4775 -0.4614 90° East  Level Estimated
12:14AM 51.4775 -0.4614 90° East  Level Estimated
12:15AM 51.4775 -0.4614 90° East  Level Estimated
12:16AM 51.4775 -0.4614 90° East  Level Estimated
12:17AM 51.4775 -0.4614 90° East  Level Estimated
12:18AM 51.4775 -0.4614 90° East  Level Estimated
12:19AM 51.4775 -0.4614 90° East  Level Estimated